sensor_id;sensor_type;location;lat;lon;timestamp;temperature;humidity
40538;DHT22;27925;41.874;12.526;2023-10-09T00:08:40;22.30;72.00
40538;DHT22;27925;41.874;12.526;2023-10-09T00:11:10;22.30;71.90
40538;DHT22;27925;41.874;12.526;2023-10-09T00:13:44;22.30;71.70
40538;DHT22;27925;41.874;12.526;2023-10-09T00:16:18;22.20;71.80
40538;DHT22;27925;41.874;12.526;2023-10-09T00:19:02;22.30;72.00
40538;DHT22;27925;41.874;12.526;2023-10-09T00:21:46;22.20;71.90
40538;DHT22;27925;41.874;12.526;2023-10-09T00:24:13;22.20;73.00
40538;DHT22;27925;41.874;12.526;2023-10-09T00:26:47;22.10;72.10
40538;DHT22;27925;41.874;12.526;2023-10-09T00:29:14;22.10;72.60
40538;DHT22;27925;41.874;12.526;2023-10-09T00:31:53;22.10;72.50
40538;DHT22;27925;41.874;12.526;2023-10-09T00:34:41;22.10;73.40
40538;DHT22;27925;41.874;12.526;2023-10-09T00:37:11;22.10;73.00
40538;DHT22;27925;41.874;12.526;2023-10-09T00:39:43;22.10;73.60
40538;DHT22;27925;41.874;12.526;2023-10-09T00:42:10;22.10;73.00
40538;DHT22;27925;41.874;12.526;2023-10-09T00:44:41;22.10;72.90
40538;DHT22;27925;41.874;12.526;2023-10-09T00:47:12;22.00;73.10
40538;DHT22;27925;41.874;12.526;2023-10-09T00:49:52;22.10;73.00
40538;DHT22;27925;41.874;12.526;2023-10-09T00:52:33;22.10;73.00
40538;DHT22;27925;41.874;12.526;2023-10-09T00:55:09;22.10;72.90
40538;DHT22;27925;41.874;12.526;2023-10-09T00:57:56;22.10;72.90
40538;DHT22;27925;41.874;12.526;2023-10-09T01:00:23;22.10;72.90
40538;DHT22;27925;41.874;12.526;2023-10-09T01:03:04;22.00;72.70
40538;DHT22;27925;41.874;12.526;2023-10-09T01:05:45;22.00;73.60
40538;DHT22;27925;41.874;12.526;2023-10-09T01:08:21;22.10;73.20
40538;DHT22;27925;41.874;12.526;2023-10-09T01:11:16;22.10;73.60
40538;DHT22;27925;41.874;12.526;2023-10-09T01:13:45;22.00;73.20
40538;DHT22;27925;41.874;12.526;2023-10-09T01:16:15;22.00;73.00
40538;DHT22;27925;41.874;12.526;2023-10-09T01:18:49;22.00;73.10
40538;DHT22;27925;41.874;12.526;2023-10-09T01:21:16;22.00;73.70
40538;DHT22;27925;41.874;12.526;2023-10-09T01:23:44;21.90;73.00
40538;DHT22;27925;41.874;12.526;2023-10-09T01:26:31;21.90;72.90
40538;DHT22;27925;41.874;12.526;2023-10-09T01:29:11;21.90;73.00
40538;DHT22;27925;41.874;12.526;2023-10-09T01:31:43;21.80;73.50
40538;DHT22;27925;41.874;12.526;2023-10-09T01:34:37;21.80;72.80
40538;DHT22;27925;41.874;12.526;2023-10-09T01:37:03;21.70;72.70
40538;DHT22;27925;41.874;12.526;2023-10-09T01:39:31;21.70;73.00
40538;DHT22;27925;41.874;12.526;2023-10-09T01:41:57;21.70;73.10
40538;DHT22;27925;41.874;12.526;2023-10-09T01:44:27;21.60;73.20
40538;DHT22;27925;41.874;12.526;2023-10-09T01:47:05;21.60;73.00
40538;DHT22;27925;41.874;12.526;2023-10-09T01:49:38;21.60;73.70
40538;DHT22;27925;41.874;12.526;2023-10-09T01:52:07;21.60;73.50
40538;DHT22;27925;41.874;12.526;2023-10-09T01:54:38;21.60;72.70
40538;DHT22;27925;41.874;12.526;2023-10-09T01:57:07;21.60;72.80
40538;DHT22;27925;41.874;12.526;2023-10-09T01:59:43;21.60;72.40
40538;DHT22;27925;41.874;12.526;2023-10-09T02:02:13;21.60;72.20
40538;DHT22;27925;41.874;12.526;2023-10-09T02:05:04;21.60;72.10
40538;DHT22;27925;41.874;12.526;2023-10-09T02:07:51;21.50;72.20
40538;DHT22;27925;41.874;12.526;2023-10-09T02:10:19;21.50;72.10
40538;DHT22;27925;41.874;12.526;2023-10-09T02:12:56;21.50;72.30
40538;DHT22;27925;41.874;12.526;2023-10-09T02:15:29;21.50;72.10
40538;DHT22;27925;41.874;12.526;2023-10-09T02:18:14;21.50;71.90
40538;DHT22;27925;41.874;12.526;2023-10-09T02:23:25;21.40;71.90
40538;DHT22;27925;41.874;12.526;2023-10-09T02:25:59;21.40;71.90
40538;DHT22;27925;41.874;12.526;2023-10-09T02:28:30;21.30;71.70
40538;DHT22;27925;41.874;12.526;2023-10-09T02:30:59;21.40;71.70
40538;DHT22;27925;41.874;12.526;2023-10-09T02:33:37;21.40;71.20
40538;DHT22;27925;41.874;12.526;2023-10-09T02:36:08;21.40;71.10
40538;DHT22;27925;41.874;12.526;2023-10-09T02:38:34;21.50;71.20
40538;DHT22;27925;41.874;12.526;2023-10-09T02:41:06;21.40;70.70
40538;DHT22;27925;41.874;12.526;2023-10-09T02:43:33;21.40;70.80
40538;DHT22;27925;41.874;12.526;2023-10-09T02:46:06;21.30;70.70
40538;DHT22;27925;41.874;12.526;2023-10-09T02:48:55;21.30;70.70
40538;DHT22;27925;41.874;12.526;2023-10-09T02:51:26;21.30;70.90
40538;DHT22;27925;41.874;12.526;2023-10-09T02:53:57;21.30;70.80
40538;DHT22;27925;41.874;12.526;2023-10-09T02:56:24;21.30;70.90
40538;DHT22;27925;41.874;12.526;2023-10-09T02:58:56;21.20;70.60
40538;DHT22;27925;41.874;12.526;2023-10-09T03:01:31;21.30;70.90
40538;DHT22;27925;41.874;12.526;2023-10-09T03:03:57;21.30;70.70
40538;DHT22;27925;41.874;12.526;2023-10-09T03:06:24;21.30;70.80
40538;DHT22;27925;41.874;12.526;2023-10-09T03:08:57;21.20;70.90
40538;DHT22;27925;41.874;12.526;2023-10-09T03:11:23;21.20;70.70
40538;DHT22;27925;41.874;12.526;2023-10-09T03:13:49;21.20;70.60
40538;DHT22;27925;41.874;12.526;2023-10-09T03:16:16;21.20;70.80
40538;DHT22;27925;41.874;12.526;2023-10-09T03:18:53;21.30;70.50
40538;DHT22;27925;41.874;12.526;2023-10-09T03:21:19;21.20;70.60
40538;DHT22;27925;41.874;12.526;2023-10-09T03:23:47;21.20;70.60
40538;DHT22;27925;41.874;12.526;2023-10-09T03:26:19;21.20;70.60
40538;DHT22;27925;41.874;12.526;2023-10-09T03:28:46;21.20;71.00
40538;DHT22;27925;41.874;12.526;2023-10-09T03:31:13;21.20;70.30
40538;DHT22;27925;41.874;12.526;2023-10-09T03:33:39;21.10;70.40
40538;DHT22;27925;41.874;12.526;2023-10-09T03:36:06;21.10;70.30
40538;DHT22;27925;41.874;12.526;2023-10-09T03:38:35;21.00;70.30
40538;DHT22;27925;41.874;12.526;2023-10-09T03:41:02;21.00;70.30
40538;DHT22;27925;41.874;12.526;2023-10-09T03:43:37;21.00;70.20
40538;DHT22;27925;41.874;12.526;2023-10-09T03:46:05;21.00;70.30
40538;DHT22;27925;41.874;12.526;2023-10-09T03:48:38;21.10;70.40
40538;DHT22;27925;41.874;12.526;2023-10-09T03:51:04;21.00;70.20
40538;DHT22;27925;41.874;12.526;2023-10-09T03:53:38;21.00;70.50
40538;DHT22;27925;41.874;12.526;2023-10-09T03:56:08;21.00;70.20
40538;DHT22;27925;41.874;12.526;2023-10-09T03:58:42;21.00;70.30
40538;DHT22;27925;41.874;12.526;2023-10-09T04:01:10;21.00;70.30
40538;DHT22;27925;41.874;12.526;2023-10-09T04:03:51;21.10;70.40
40538;DHT22;27925;41.874;12.526;2023-10-09T04:06:23;21.10;70.50
40538;DHT22;27925;41.874;12.526;2023-10-09T04:08:54;21.00;70.60
40538;DHT22;27925;41.874;12.526;2023-10-09T04:11:20;21.00;70.20
40538;DHT22;27925;41.874;12.526;2023-10-09T04:13:49;21.00;70.20
40538;DHT22;27925;41.874;12.526;2023-10-09T04:16:19;21.00;70.50
40538;DHT22;27925;41.874;12.526;2023-10-09T04:18:54;21.00;70.10
40538;DHT22;27925;41.874;12.526;2023-10-09T04:21:22;20.90;70.70
40538;DHT22;27925;41.874;12.526;2023-10-09T04:24:01;20.90;70.50
40538;DHT22;27925;41.874;12.526;2023-10-09T04:26:46;20.80;70.40
40538;DHT22;27925;41.874;12.526;2023-10-09T04:29:16;20.80;70.60
40538;DHT22;27925;41.874;12.526;2023-10-09T04:32:00;20.80;70.80
40538;DHT22;27925;41.874;12.526;2023-10-09T04:34:27;20.80;70.70
40538;DHT22;27925;41.874;12.526;2023-10-09T04:37:03;20.80;71.00
40538;DHT22;27925;41.874;12.526;2023-10-09T04:39:49;20.80;70.90
40538;DHT22;27925;41.874;12.526;2023-10-09T04:42:36;20.80;71.20
40538;DHT22;27925;41.874;12.526;2023-10-09T04:45:05;20.80;70.90
40538;DHT22;27925;41.874;12.526;2023-10-09T04:47:35;20.80;70.80
40538;DHT22;27925;41.874;12.526;2023-10-09T04:52:33;20.80;70.60
40538;DHT22;27925;41.874;12.526;2023-10-09T04:55:00;20.80;70.60
40538;DHT22;27925;41.874;12.526;2023-10-09T05:00:10;20.70;71.00
40538;DHT22;27925;41.874;12.526;2023-10-09T05:03:02;20.80;70.70
40538;DHT22;27925;41.874;12.526;2023-10-09T05:05:39;20.80;70.80
40538;DHT22;27925;41.874;12.526;2023-10-09T05:08:08;20.70;70.50
40538;DHT22;27925;41.874;12.526;2023-10-09T05:10:50;20.70;70.60
40538;DHT22;27925;41.874;12.526;2023-10-09T05:13:29;20.60;70.60
40538;DHT22;27925;41.874;12.526;2023-10-09T05:18:53;20.60;70.90
40538;DHT22;27925;41.874;12.526;2023-10-09T05:21:40;20.70;70.80
40538;DHT22;27925;41.874;12.526;2023-10-09T05:24:12;20.60;70.90
40538;DHT22;27925;41.874;12.526;2023-10-09T05:26:46;20.70;71.20
40538;DHT22;27925;41.874;12.526;2023-10-09T05:29:20;20.70;71.00
40538;DHT22;27925;41.874;12.526;2023-10-09T05:31:58;20.70;70.40
40538;DHT22;27925;41.874;12.526;2023-10-09T05:34:40;20.70;70.20
40538;DHT22;27925;41.874;12.526;2023-10-09T05:37:32;20.80;70.30
40538;DHT22;27925;41.874;12.526;2023-10-09T05:40:00;20.80;70.30
40538;DHT22;27925;41.874;12.526;2023-10-09T05:42:30;20.80;70.40
40538;DHT22;27925;41.874;12.526;2023-10-09T05:45:12;20.80;69.90
40538;DHT22;27925;41.874;12.526;2023-10-09T05:47:52;20.80;69.80
40538;DHT22;27925;41.874;12.526;2023-10-09T05:50:24;20.90;69.80
40538;DHT22;27925;41.874;12.526;2023-10-09T05:52:51;20.90;70.20
40538;DHT22;27925;41.874;12.526;2023-10-09T05:55:21;20.90;69.90
40538;DHT22;27925;41.874;12.526;2023-10-09T05:57:53;20.90;70.30
40538;DHT22;27925;41.874;12.526;2023-10-09T06:00:19;20.90;69.60
40538;DHT22;27925;41.874;12.526;2023-10-09T06:03:03;20.90;70.20
40538;DHT22;27925;41.874;12.526;2023-10-09T06:05:48;21.00;69.90
40538;DHT22;27925;41.874;12.526;2023-10-09T06:08:18;21.00;69.40
40538;DHT22;27925;41.874;12.526;2023-10-09T06:10:51;21.10;69.40
40538;DHT22;27925;41.874;12.526;2023-10-09T06:13:31;21.10;69.10
40538;DHT22;27925;41.874;12.526;2023-10-09T06:16:04;21.20;69.00
40538;DHT22;27925;41.874;12.526;2023-10-09T06:18:55;21.30;68.80
40538;DHT22;27925;41.874;12.526;2023-10-09T06:21:34;21.50;68.80
40538;DHT22;27925;41.874;12.526;2023-10-09T06:26:47;21.80;67.80
40538;DHT22;27925;41.874;12.526;2023-10-09T06:29:25;22.00;67.50
40538;DHT22;27925;41.874;12.526;2023-10-09T06:32:09;22.10;67.10
40538;DHT22;27925;41.874;12.526;2023-10-09T06:34:48;22.20;66.40
40538;DHT22;27925;41.874;12.526;2023-10-09T06:37:21;22.30;66.70
40538;DHT22;27925;41.874;12.526;2023-10-09T06:39:50;22.50;66.70
40538;DHT22;27925;41.874;12.526;2023-10-09T06:42:35;22.70;66.40
40538;DHT22;27925;41.874;12.526;2023-10-09T06:45:05;22.80;65.90
40538;DHT22;27925;41.874;12.526;2023-10-09T06:47:35;22.90;65.80
40538;DHT22;27925;41.874;12.526;2023-10-09T06:50:12;23.00;65.40
40538;DHT22;27925;41.874;12.526;2023-10-09T06:52:47;23.20;64.70
40538;DHT22;27925;41.874;12.526;2023-10-09T06:55:23;23.30;65.10
40538;DHT22;27925;41.874;12.526;2023-10-09T06:58:00;23.40;64.70
40538;DHT22;27925;41.874;12.526;2023-10-09T07:00:29;23.60;65.00
40538;DHT22;27925;41.874;12.526;2023-10-09T07:03:20;23.70;63.90
40538;DHT22;27925;41.874;12.526;2023-10-09T07:06:06;23.80;64.00
40538;DHT22;27925;41.874;12.526;2023-10-09T07:08:50;23.80;63.30
40538;DHT22;27925;41.874;12.526;2023-10-09T07:11:44;23.90;63.80
40538;DHT22;27925;41.874;12.526;2023-10-09T07:14:19;23.90;63.80
40538;DHT22;27925;41.874;12.526;2023-10-09T07:17:08;24.00;63.80
40538;DHT22;27925;41.874;12.526;2023-10-09T07:19:46;24.10;63.10
40538;DHT22;27925;41.874;12.526;2023-10-09T07:22:12;24.10;63.50
40538;DHT22;27925;41.874;12.526;2023-10-09T07:25:01;24.20;62.80
40538;DHT22;27925;41.874;12.526;2023-10-09T07:27:53;24.20;62.60
40538;DHT22;27925;41.874;12.526;2023-10-09T07:30:21;24.20;62.50
40538;DHT22;27925;41.874;12.526;2023-10-09T07:32:59;24.30;62.10
40538;DHT22;27925;41.874;12.526;2023-10-09T07:35:40;24.30;61.70
40538;DHT22;27925;41.874;12.526;2023-10-09T07:38:15;24.30;61.90
40538;DHT22;27925;41.874;12.526;2023-10-09T07:40:48;24.20;62.00
40538;DHT22;27925;41.874;12.526;2023-10-09T07:43:33;24.20;62.30
40538;DHT22;27925;41.874;12.526;2023-10-09T07:46:09;24.10;61.60
40538;DHT22;27925;41.874;12.526;2023-10-09T07:48:55;24.10;61.90
40538;DHT22;27925;41.874;12.526;2023-10-09T07:51:22;24.00;62.00
40538;DHT22;27925;41.874;12.526;2023-10-09T07:53:52;24.00;62.10
40538;DHT22;27925;41.874;12.526;2023-10-09T07:56:32;24.00;62.00
40538;DHT22;27925;41.874;12.526;2023-10-09T07:59:05;24.00;62.30
40538;DHT22;27925;41.874;12.526;2023-10-09T08:01:40;23.90;62.20
40538;DHT22;27925;41.874;12.526;2023-10-09T08:04:20;23.90;62.20
40538;DHT22;27925;41.874;12.526;2023-10-09T08:07:10;23.90;62.30
40538;DHT22;27925;41.874;12.526;2023-10-09T08:09:45;23.90;62.30
40538;DHT22;27925;41.874;12.526;2023-10-09T08:12:14;23.90;62.20
40538;DHT22;27925;41.874;12.526;2023-10-09T08:15:05;23.80;61.90
40538;DHT22;27925;41.874;12.526;2023-10-09T08:17:57;23.80;61.80
40538;DHT22;27925;41.874;12.526;2023-10-09T08:20:35;23.80;61.50
40538;DHT22;27925;41.874;12.526;2023-10-09T08:23:36;23.80;61.50
40538;DHT22;27925;41.874;12.526;2023-10-09T08:26:15;23.80;61.30
40538;DHT22;27925;41.874;12.526;2023-10-09T08:28:54;23.90;61.30
40538;DHT22;27925;41.874;12.526;2023-10-09T08:31:40;23.90;61.20
40538;DHT22;27925;41.874;12.526;2023-10-09T08:34:15;23.90;60.80
40538;DHT22;27925;41.874;12.526;2023-10-09T08:36:51;24.00;60.90
40538;DHT22;27925;41.874;12.526;2023-10-09T08:39:21;24.00;60.90
40538;DHT22;27925;41.874;12.526;2023-10-09T08:41:55;24.00;60.80
40538;DHT22;27925;41.874;12.526;2023-10-09T08:44:26;24.10;60.70
40538;DHT22;27925;41.874;12.526;2023-10-09T08:46:55;24.10;60.50
40538;DHT22;27925;41.874;12.526;2023-10-09T08:49:25;24.10;60.00
40538;DHT22;27925;41.874;12.526;2023-10-09T08:51:51;24.20;60.10
40538;DHT22;27925;41.874;12.526;2023-10-09T08:54:18;24.20;59.70
40538;DHT22;27925;41.874;12.526;2023-10-09T08:56:47;24.30;59.90
40538;DHT22;27925;41.874;12.526;2023-10-09T08:59:18;24.30;59.80
40538;DHT22;27925;41.874;12.526;2023-10-09T09:01:48;24.30;59.60
40538;DHT22;27925;41.874;12.526;2023-10-09T09:04:36;24.40;59.50
40538;DHT22;27925;41.874;12.526;2023-10-09T09:10:08;24.50;58.80
40538;DHT22;27925;41.874;12.526;2023-10-09T09:12:46;24.60;58.90
40538;DHT22;27925;41.874;12.526;2023-10-09T09:15:16;24.70;58.90
40538;DHT22;27925;41.874;12.526;2023-10-09T09:17:46;24.70;58.60
40538;DHT22;27925;41.874;12.526;2023-10-09T09:20:29;24.80;58.90
40538;DHT22;27925;41.874;12.526;2023-10-09T09:23:11;24.90;58.40
40538;DHT22;27925;41.874;12.526;2023-10-09T09:25:47;25.00;58.30
40538;DHT22;27925;41.874;12.526;2023-10-09T09:28:27;25.10;58.20
40538;DHT22;27925;41.874;12.526;2023-10-09T09:31:08;25.20;57.80
40538;DHT22;27925;41.874;12.526;2023-10-09T09:33:40;25.20;57.70
40538;DHT22;27925;41.874;12.526;2023-10-09T09:36:08;25.30;57.90
40538;DHT22;27925;41.874;12.526;2023-10-09T09:38:37;25.30;58.00
40538;DHT22;27925;41.874;12.526;2023-10-09T09:41:13;25.40;57.70
40538;DHT22;27925;41.874;12.526;2023-10-09T09:43:54;25.50;57.90
40538;DHT22;27925;41.874;12.526;2023-10-09T09:46:22;25.60;57.30
40538;DHT22;27925;41.874;12.526;2023-10-09T09:49:00;25.70;57.20
40538;DHT22;27925;41.874;12.526;2023-10-09T09:51:29;25.80;56.60
40538;DHT22;27925;41.874;12.526;2023-10-09T09:53:55;25.90;56.30
40538;DHT22;27925;41.874;12.526;2023-10-09T09:56:25;26.00;56.10
40538;DHT22;27925;41.874;12.526;2023-10-09T09:58:51;26.10;55.50
40538;DHT22;27925;41.874;12.526;2023-10-09T10:01:28;26.20;55.50
40538;DHT22;27925;41.874;12.526;2023-10-09T10:03:59;26.30;55.70
40538;DHT22;27925;41.874;12.526;2023-10-09T10:06:29;26.30;55.70
40538;DHT22;27925;41.874;12.526;2023-10-09T10:08:58;26.40;55.60
40538;DHT22;27925;41.874;12.526;2023-10-09T10:11:44;26.50;55.60
40538;DHT22;27925;41.874;12.526;2023-10-09T10:14:13;26.60;55.60
40538;DHT22;27925;41.874;12.526;2023-10-09T10:17:03;26.60;55.50
40538;DHT22;27925;41.874;12.526;2023-10-09T10:22:42;26.80;55.10
40538;DHT22;27925;41.874;12.526;2023-10-09T10:28:20;27.10;54.60
40538;DHT22;27925;41.874;12.526;2023-10-09T10:31:06;27.10;54.20
40538;DHT22;27925;41.874;12.526;2023-10-09T10:36:25;27.40;53.80
40538;DHT22;27925;41.874;12.526;2023-10-09T10:39:05;27.50;54.20
40538;DHT22;27925;41.874;12.526;2023-10-09T10:41:33;27.50;53.60
40538;DHT22;27925;41.874;12.526;2023-10-09T10:44:04;27.70;53.60
40538;DHT22;27925;41.874;12.526;2023-10-09T10:47:06;27.70;53.20
40538;DHT22;27925;41.874;12.526;2023-10-09T10:49:53;27.90;53.40
40538;DHT22;27925;41.874;12.526;2023-10-09T10:52:45;27.90;52.60
40538;DHT22;27925;41.874;12.526;2023-10-09T10:55:21;28.00;52.90
40538;DHT22;27925;41.874;12.526;2023-10-09T10:57:55;28.10;52.00
40538;DHT22;27925;41.874;12.526;2023-10-09T11:00:22;28.20;52.00
40538;DHT22;27925;41.874;12.526;2023-10-09T11:03:26;28.30;51.60
40538;DHT22;27925;41.874;12.526;2023-10-09T11:06:10;28.30;52.00
40538;DHT22;27925;41.874;12.526;2023-10-09T11:08:44;28.40;52.00
40538;DHT22;27925;41.874;12.526;2023-10-09T11:11:20;28.40;52.10
40538;DHT22;27925;41.874;12.526;2023-10-09T11:13:46;28.60;51.80
40538;DHT22;27925;41.874;12.526;2023-10-09T11:16:19;28.60;51.00
40538;DHT22;27925;41.874;12.526;2023-10-09T11:19:05;28.70;50.50
40538;DHT22;27925;41.874;12.526;2023-10-09T11:21:39;28.80;51.10
40538;DHT22;27925;41.874;12.526;2023-10-09T11:24:09;28.90;50.60
40538;DHT22;27925;41.874;12.526;2023-10-09T11:26:50;29.00;50.10
40538;DHT22;27925;41.874;12.526;2023-10-09T11:29:25;29.00;50.50
40538;DHT22;27925;41.874;12.526;2023-10-09T11:32:15;29.10;49.50
40538;DHT22;27925;41.874;12.526;2023-10-09T11:34:46;29.20;50.20
40538;DHT22;27925;41.874;12.526;2023-10-09T11:37:18;29.20;50.00
40538;DHT22;27925;41.874;12.526;2023-10-09T11:39:56;29.30;49.70
40538;DHT22;27925;41.874;12.526;2023-10-09T11:42:24;29.40;50.00
40538;DHT22;27925;41.874;12.526;2023-10-09T11:45:27;29.50;49.70
40538;DHT22;27925;41.874;12.526;2023-10-09T11:48:16;29.60;49.70
40538;DHT22;27925;41.874;12.526;2023-10-09T11:50:48;29.70;49.60
40538;DHT22;27925;41.874;12.526;2023-10-09T11:53:17;29.70;48.10
40538;DHT22;27925;41.874;12.526;2023-10-09T11:55:46;29.80;48.50
40538;DHT22;27925;41.874;12.526;2023-10-09T11:58:15;29.90;48.00
40538;DHT22;27925;41.874;12.526;2023-10-09T12:00:52;29.90;48.20
40538;DHT22;27925;41.874;12.526;2023-10-09T12:03:24;30.00;47.90
40538;DHT22;27925;41.874;12.526;2023-10-09T12:05:54;30.10;48.00
40538;DHT22;27925;41.874;12.526;2023-10-09T12:08:23;30.10;47.40
40538;DHT22;27925;41.874;12.526;2023-10-09T12:10:55;30.20;47.20
40538;DHT22;27925;41.874;12.526;2023-10-09T12:13:24;30.30;46.60
40538;DHT22;27925;41.874;12.526;2023-10-09T12:15:51;30.30;46.90
40538;DHT22;27925;41.874;12.526;2023-10-09T12:18:21;30.30;46.80
40538;DHT22;27925;41.874;12.526;2023-10-09T12:20:48;30.40;46.80
40538;DHT22;27925;41.874;12.526;2023-10-09T12:23:21;30.40;45.90
40538;DHT22;27925;41.874;12.526;2023-10-09T12:25:50;30.50;47.30
40538;DHT22;27925;41.874;12.526;2023-10-09T12:28:17;30.50;47.00
40538;DHT22;27925;41.874;12.526;2023-10-09T12:30:46;30.60;46.90
40538;DHT22;27925;41.874;12.526;2023-10-09T12:33:16;30.60;47.10
40538;DHT22;27925;41.874;12.526;2023-10-09T12:35:42;30.70;47.30
40538;DHT22;27925;41.874;12.526;2023-10-09T12:38:11;30.80;48.40
40538;DHT22;27925;41.874;12.526;2023-10-09T12:40:38;30.80;49.50
40538;DHT22;27925;41.874;12.526;2023-10-09T12:43:06;30.80;50.20
40538;DHT22;27925;41.874;12.526;2023-10-09T12:45:43;30.80;50.70
40538;DHT22;27925;41.874;12.526;2023-10-09T12:48:10;30.80;49.50
40538;DHT22;27925;41.874;12.526;2023-10-09T12:50:36;30.80;50.80
40538;DHT22;27925;41.874;12.526;2023-10-09T12:53:10;30.80;49.90
40538;DHT22;27925;41.874;12.526;2023-10-09T12:55:37;30.70;51.10
40538;DHT22;27925;41.874;12.526;2023-10-09T12:58:10;30.70;51.20
40538;DHT22;27925;41.874;12.526;2023-10-09T13:00:40;30.70;51.30
40538;DHT22;27925;41.874;12.526;2023-10-09T13:03:17;30.70;51.10
40538;DHT22;27925;41.874;12.526;2023-10-09T13:05:48;30.80;51.40
40538;DHT22;27925;41.874;12.526;2023-10-09T13:08:29;30.80;49.80
40538;DHT22;27925;41.874;12.526;2023-10-09T13:11:07;30.80;49.70
40538;DHT22;27925;41.874;12.526;2023-10-09T13:13:40;30.80;51.20
40538;DHT22;27925;41.874;12.526;2023-10-09T13:16:11;30.80;49.60
40538;DHT22;27925;41.874;12.526;2023-10-09T13:18:40;30.80;51.00
40538;DHT22;27925;41.874;12.526;2023-10-09T13:21:06;30.80;51.00
40538;DHT22;27925;41.874;12.526;2023-10-09T13:23:32;30.80;50.80
40538;DHT22;27925;41.874;12.526;2023-10-09T13:26:06;30.80;50.80
40538;DHT22;27925;41.874;12.526;2023-10-09T13:28:53;30.80;50.90
40538;DHT22;27925;41.874;12.526;2023-10-09T13:31:20;30.90;51.00
40538;DHT22;27925;41.874;12.526;2023-10-09T13:33:53;30.80;50.30
40538;DHT22;27925;41.874;12.526;2023-10-09T13:36:30;30.70;50.20
40538;DHT22;27925;41.874;12.526;2023-10-09T13:39:08;30.70;49.50
40538;DHT22;27925;41.874;12.526;2023-10-09T13:41:47;30.70;49.30
40538;DHT22;27925;41.874;12.526;2023-10-09T13:44:13;30.60;50.70
40538;DHT22;27925;41.874;12.526;2023-10-09T13:46:38;30.60;50.90
40538;DHT22;27925;41.874;12.526;2023-10-09T13:49:10;30.60;51.10
40538;DHT22;27925;41.874;12.526;2023-10-09T13:51:40;30.60;51.40
40538;DHT22;27925;41.874;12.526;2023-10-09T13:54:13;30.60;51.70
40538;DHT22;27925;41.874;12.526;2023-10-09T13:56:57;30.60;51.70
40538;DHT22;27925;41.874;12.526;2023-10-09T13:59:23;30.50;51.10
40538;DHT22;27925;41.874;12.526;2023-10-09T14:01:53;30.40;51.00
40538;DHT22;27925;41.874;12.526;2023-10-09T14:04:25;30.40;50.90
40538;DHT22;27925;41.874;12.526;2023-10-09T14:06:52;30.40;50.80
40538;DHT22;27925;41.874;12.526;2023-10-09T14:09:26;30.40;50.00
40538;DHT22;27925;41.874;12.526;2023-10-09T14:12:21;30.40;51.10
40538;DHT22;27925;41.874;12.526;2023-10-09T14:14:47;30.30;51.10
40538;DHT22;27925;41.874;12.526;2023-10-09T14:19:41;30.30;51.60
40538;DHT22;27925;41.874;12.526;2023-10-09T14:22:13;30.20;52.30
40538;DHT22;27925;41.874;12.526;2023-10-09T14:24:45;30.20;52.20
40538;DHT22;27925;41.874;12.526;2023-10-09T14:27:15;30.10;52.10
40538;DHT22;27925;41.874;12.526;2023-10-09T14:29:44;30.10;52.30
40538;DHT22;27925;41.874;12.526;2023-10-09T14:32:11;30.10;52.30
40538;DHT22;27925;41.874;12.526;2023-10-09T14:34:43;30.10;52.20
40538;DHT22;27925;41.874;12.526;2023-10-09T14:37:18;30.10;51.50
40538;DHT22;27925;41.874;12.526;2023-10-09T14:39:45;30.00;49.90
40538;DHT22;27925;41.874;12.526;2023-10-09T14:42:15;30.00;51.40
40538;DHT22;27925;41.874;12.526;2023-10-09T14:44:41;30.00;52.20
40538;DHT22;27925;41.874;12.526;2023-10-09T14:47:07;29.90;52.30
40538;DHT22;27925;41.874;12.526;2023-10-09T14:49:34;29.90;52.30
40538;DHT22;27925;41.874;12.526;2023-10-09T14:52:09;29.80;51.50
40538;DHT22;27925;41.874;12.526;2023-10-09T14:54:36;29.80;52.40
40538;DHT22;27925;41.874;12.526;2023-10-09T14:57:03;29.70;52.20
40538;DHT22;27925;41.874;12.526;2023-10-09T14:59:32;29.70;51.90
40538;DHT22;27925;41.874;12.526;2023-10-09T15:01:59;29.60;51.90
40538;DHT22;27925;41.874;12.526;2023-10-09T15:04:25;29.60;51.20
40538;DHT22;27925;41.874;12.526;2023-10-09T15:06:52;29.60;51.00
40538;DHT22;27925;41.874;12.526;2023-10-09T15:09:17;29.50;50.50
40538;DHT22;27925;41.874;12.526;2023-10-09T15:11:56;29.50;49.20
40538;DHT22;27925;41.874;12.526;2023-10-09T15:14:23;29.40;49.90
40538;DHT22;27925;41.874;12.526;2023-10-09T15:16:49;29.40;49.80
40538;DHT22;27925;41.874;12.526;2023-10-09T15:19:15;29.40;49.60
40538;DHT22;27925;41.874;12.526;2023-10-09T15:21:42;29.30;49.10
40538;DHT22;27925;41.874;12.526;2023-10-09T15:24:12;29.30;49.10
40538;DHT22;27925;41.874;12.526;2023-10-09T15:26:41;29.30;49.10
40538;DHT22;27925;41.874;12.526;2023-10-09T15:29:07;29.20;49.00
40538;DHT22;27925;41.874;12.526;2023-10-09T15:31:36;29.20;49.10
40538;DHT22;27925;41.874;12.526;2023-10-09T15:34:02;29.10;48.90
40538;DHT22;27925;41.874;12.526;2023-10-09T15:36:28;29.10;48.90
40538;DHT22;27925;41.874;12.526;2023-10-09T15:38:57;29.00;48.40
40538;DHT22;27925;41.874;12.526;2023-10-09T15:41:29;29.00;48.60
40538;DHT22;27925;41.874;12.526;2023-10-09T15:44:00;28.90;48.30
40538;DHT22;27925;41.874;12.526;2023-10-09T15:46:26;28.90;47.60
40538;DHT22;27925;41.874;12.526;2023-10-09T15:48:53;28.80;47.30
40538;DHT22;27925;41.874;12.526;2023-10-09T15:51:19;28.80;47.00
40538;DHT22;27925;41.874;12.526;2023-10-09T15:53:46;28.70;46.90
40538;DHT22;27925;41.874;12.526;2023-10-09T15:56:12;28.70;46.60
40538;DHT22;27925;41.874;12.526;2023-10-09T15:58:42;28.60;46.30
40538;DHT22;27925;41.874;12.526;2023-10-09T16:01:14;28.60;46.90
40538;DHT22;27925;41.874;12.526;2023-10-09T16:03:41;28.50;45.10
40538;DHT22;27925;41.874;12.526;2023-10-09T16:06:07;28.50;46.60
40538;DHT22;27925;41.874;12.526;2023-10-09T16:08:47;28.40;46.70
40538;DHT22;27925;41.874;12.526;2023-10-09T16:11:20;28.40;46.00
40538;DHT22;27925;41.874;12.526;2023-10-09T16:13:50;28.30;47.50
40538;DHT22;27925;41.874;12.526;2023-10-09T16:16:27;28.30;47.70
40538;DHT22;27925;41.874;12.526;2023-10-09T16:18:54;28.20;47.40
40538;DHT22;27925;41.874;12.526;2023-10-09T16:21:25;28.10;48.10
40538;DHT22;27925;41.874;12.526;2023-10-09T16:23:51;28.10;47.30
40538;DHT22;27925;41.874;12.526;2023-10-09T16:26:17;28.00;48.80
40538;DHT22;27925;41.874;12.526;2023-10-09T16:28:43;27.90;48.70
40538;DHT22;27925;41.874;12.526;2023-10-09T16:31:10;27.90;49.40